sensor_id;sensor_type;location;lat;lon;timestamp;pressure;altitude;pressure_sealevel;temperature;humidity
72308;BME280;60257;42.638;23.376;2024-03-02T00:01:26;94080.94;;;7.80;84.20
72308;BME280;60257;42.638;23.376;2024-03-02T00:03:26;94093.44;;;7.81;84.12
72308;BME280;60257;42.638;23.376;2024-03-02T00:05:27;94089.53;;;7.82;84.32
72308;BME280;60257;42.638;23.376;2024-03-02T00:07:27;94089.78;;;7.77;84.13
72308;BME280;60257;42.638;23.376;2024-03-02T00:09:27;94081.84;;;7.72;84.30
72308;BME280;60257;42.638;23.376;2024-03-02T00:11:28;94086.97;;;7.73;84.45
72308;BME280;60257;42.638;23.376;2024-03-02T00:13:29;94092.44;;;7.73;84.59
72308;BME280;60257;42.638;23.376;2024-03-02T00:15:47;94088.44;;;7.71;84.89
72308;BME280;60257;42.638;23.376;2024-03-02T00:17:53;94083.22;;;7.66;85.08
72308;BME280;60257;42.638;23.376;2024-03-02T00:19:53;94078.78;;;7.61;85.24
72308;BME280;60257;42.638;23.376;2024-03-02T00:21:54;94078.69;;;7.58;84.89
72308;BME280;60257;42.638;23.376;2024-03-02T00:23:54;94071.28;;;7.58;84.57
72308;BME280;60257;42.638;23.376;2024-03-02T00:25:55;94066.16;;;7.45;85.33
72308;BME280;60257;42.638;23.376;2024-03-02T00:27:56;94071.75;;;7.48;85.25
72308;BME280;60257;42.638;23.376;2024-03-02T00:29:56;94043.00;;;7.26;85.48
72308;BME280;60257;42.638;23.376;2024-03-02T00:31:57;94065.94;;;7.38;85.71
72308;BME280;60257;42.638;23.376;2024-03-02T00:34:00;94063.31;;;7.29;86.23
72308;BME280;60257;42.638;23.376;2024-03-02T00:36:05;94056.72;;;7.30;86.38
72308;BME280;60257;42.638;23.376;2024-03-02T00:38:06;94055.13;;;7.29;86.85
72308;BME280;60257;42.638;23.376;2024-03-02T00:40:07;94050.81;;;7.28;86.92
72308;BME280;60257;42.638;23.376;2024-03-02T00:42:08;94063.78;;;7.31;87.02
72308;BME280;60257;42.638;23.376;2024-03-02T00:44:12;94056.72;;;7.30;86.88
72308;BME280;60257;42.638;23.376;2024-03-02T00:46:15;94061.72;;;7.28;86.83
72308;BME280;60257;42.638;23.376;2024-03-02T00:48:16;94036.94;;;7.21;87.18
72308;BME280;60257;42.638;23.376;2024-03-02T00:50:17;94047.75;;;7.17;87.22
72308;BME280;60257;42.638;23.376;2024-03-02T00:52:17;94052.19;;;7.22;87.24
72308;BME280;60257;42.638;23.376;2024-03-02T00:54:22;94048.09;;;7.28;86.94
72308;BME280;60257;42.638;23.376;2024-03-02T00:56:24;94048.22;;;7.31;86.60
72308;BME280;60257;42.638;23.376;2024-03-02T00:58:25;94035.25;;;7.28;86.38
72308;BME280;60257;42.638;23.376;2024-03-02T01:00:25;94049.00;;;7.32;86.11
72308;BME280;60257;42.638;23.376;2024-03-02T01:02:26;94040.81;;;7.32;86.16
72308;BME280;60257;42.638;23.376;2024-03-02T01:04:26;94044.81;;;7.34;86.06
72308;BME280;60257;42.638;23.376;2024-03-02T01:06:27;94039.69;;;7.33;86.29
72308;BME280;60257;42.638;23.376;2024-03-02T01:08:28;94038.19;;;7.35;86.29
72308;BME280;60257;42.638;23.376;2024-03-02T01:10:28;94040.59;;;7.37;86.04
72308;BME280;60257;42.638;23.376;2024-03-02T01:12:28;94038.31;;;7.39;85.91
72308;BME280;60257;42.638;23.376;2024-03-02T01:14:29;94044.00;;;7.46;85.93
72308;BME280;60257;42.638;23.376;2024-03-02T01:16:29;94037.75;;;7.46;85.73
72308;BME280;60257;42.638;23.376;2024-03-02T01:18:30;94037.53;;;7.39;86.33
72308;BME280;60257;42.638;23.376;2024-03-02T01:20:31;94037.84;;;7.37;85.95
72308;BME280;60257;42.638;23.376;2024-03-02T01:22:31;94034.91;;;7.42;85.92
72308;BME280;60257;42.638;23.376;2024-03-02T01:24:32;94038.88;;;7.45;86.48
72308;BME280;60257;42.638;23.376;2024-03-02T01:26:32;94028.44;;;7.47;86.89
72308;BME280;60257;42.638;23.376;2024-03-02T01:28:32;94028.09;;;7.48;86.42
72308;BME280;60257;42.638;23.376;2024-03-02T01:30:33;94029.47;;;7.42;86.68
72308;BME280;60257;42.638;23.376;2024-03-02T01:32:33;94022.97;;;7.47;86.07
72308;BME280;60257;42.638;23.376;2024-03-02T01:34:33;94021.03;;;7.47;86.38
72308;BME280;60257;42.638;23.376;2024-03-02T01:36:34;94016.38;;;7.48;86.13
72308;BME280;60257;42.638;23.376;2024-03-02T01:38:34;94020.78;;;7.52;86.17
72308;BME280;60257;42.638;23.376;2024-03-02T01:40:35;94026.72;;;7.54;86.08
72308;BME280;60257;42.638;23.376;2024-03-02T01:42:37;94023.06;;;7.62;86.31
72308;BME280;60257;42.638;23.376;2024-03-02T01:44:37;94019.78;;;7.57;86.01
72308;BME280;60257;42.638;23.376;2024-03-02T01:46:38;94011.69;;;7.60;85.63
72308;BME280;60257;42.638;23.376;2024-03-02T01:48:38;94012.28;;;7.66;84.88
72308;BME280;60257;42.638;23.376;2024-03-02T01:50:39;94015.47;;;7.56;85.24
72308;BME280;60257;42.638;23.376;2024-03-02T01:52:39;94011.47;;;7.53;85.36
72308;BME280;60257;42.638;23.376;2024-03-02T01:54:40;94008.06;;;7.56;85.39
72308;BME280;60257;42.638;23.376;2024-03-02T01:56:40;94011.81;;;7.52;85.37
72308;BME280;60257;42.638;23.376;2024-03-02T01:58:41;94012.28;;;7.54;85.63
72308;BME280;60257;42.638;23.376;2024-03-02T02:00:41;94017.06;;;7.57;85.94
72308;BME280;60257;42.638;23.376;2024-03-02T02:02:42;94018.66;;;7.58;85.41
72308;BME280;60257;42.638;23.376;2024-03-02T02:04:43;94024.44;;;7.56;85.57
72308;BME280;60257;42.638;23.376;2024-03-02T02:06:44;94018.78;;;7.49;85.54
72308;BME280;60257;42.638;23.376;2024-03-02T02:08:44;94017.19;;;7.48;85.63
72308;BME280;60257;42.638;23.376;2024-03-02T02:10:45;94020.16;;;7.43;86.50
72308;BME280;60257;42.638;23.376;2024-03-02T02:12:45;94006.25;;;7.36;85.92
72308;BME280;60257;42.638;23.376;2024-03-02T02:14:49;94002.63;;;7.44;86.20
72308;BME280;60257;42.638;23.376;2024-03-02T02:16:50;94011.84;;;7.40;86.62
72308;BME280;60257;42.638;23.376;2024-03-02T02:18:50;94002.97;;;7.43;86.49
72308;BME280;60257;42.638;23.376;2024-03-02T02:20:51;94003.44;;;7.32;86.87
72308;BME280;60257;42.638;23.376;2024-03-02T02:22:57;94004.69;;;7.35;86.95
72308;BME280;60257;42.638;23.376;2024-03-02T02:24:58;94003.66;;;7.40;87.05
72308;BME280;60257;42.638;23.376;2024-03-02T02:26:58;94002.75;;;7.35;87.14
72308;BME280;60257;42.638;23.376;2024-03-02T02:28:59;94005.13;;;7.37;86.83
72308;BME280;60257;42.638;23.376;2024-03-02T02:30:59;94004.91;;;7.30;86.70
72308;BME280;60257;42.638;23.376;2024-03-02T02:33:00;94004.69;;;7.35;86.82
72308;BME280;60257;42.638;23.376;2024-03-02T02:35:00;94009.69;;;7.33;86.97
72308;BME280;60257;42.638;23.376;2024-03-02T02:37:01;94002.19;;;7.30;87.08
72308;BME280;60257;42.638;23.376;2024-03-02T02:39:02;94017.41;;;7.31;87.28
72308;BME280;60257;42.638;23.376;2024-03-02T02:41:04;94011.16;;;7.30;87.49
72308;BME280;60257;42.638;23.376;2024-03-02T02:43:04;94020.03;;;7.27;87.80
72308;BME280;60257;42.638;23.376;2024-03-02T02:45:05;94009.22;;;7.31;87.64
72308;BME280;60257;42.638;23.376;2024-03-02T02:47:06;94019.34;;;7.30;87.64
72308;BME280;60257;42.638;23.376;2024-03-02T02:49:07;94013.22;;;7.33;87.95
72308;BME280;60257;42.638;23.376;2024-03-02T02:51:07;94012.41;;;7.33;87.96
72308;BME280;60257;42.638;23.376;2024-03-02T02:53:08;94013.31;;;7.37;87.91
72308;BME280;60257;42.638;23.376;2024-03-02T02:55:11;94014.81;;;7.34;87.66
72308;BME280;60257;42.638;23.376;2024-03-02T02:57:12;94019.56;;;7.38;87.67
72308;BME280;60257;42.638;23.376;2024-03-02T02:59:12;94004.69;;;7.35;87.40
72308;BME280;60257;42.638;23.376;2024-03-02T03:01:13;94012.88;;;7.35;87.55
72308;BME280;60257;42.638;23.376;2024-03-02T03:03:13;94013.22;;;7.33;87.72
72308;BME280;60257;42.638;23.376;2024-03-02T03:05:14;94017.88;;;7.33;88.47
72308;BME280;60257;42.638;23.376;2024-03-02T03:07:15;94010.16;;;7.35;88.60
72308;BME280;60257;42.638;23.376;2024-03-02T03:09:15;94017.16;;;7.36;89.09
72308;BME280;60257;42.638;23.376;2024-03-02T03:11:15;94015.59;;;7.35;89.02
72308;BME280;60257;42.638;23.376;2024-03-02T03:13:16;94011.97;;;7.31;88.58
72308;BME280;60257;42.638;23.376;2024-03-02T03:15:16;94012.19;;;7.26;88.65
72308;BME280;60257;42.638;23.376;2024-03-02T03:17:17;94015.03;;;7.29;88.67
72308;BME280;60257;42.638;23.376;2024-03-02T03:19:17;94009.69;;;7.33;89.47
72308;BME280;60257;42.638;23.376;2024-03-02T03:21:17;94012.41;;;7.33;89.89
72308;BME280;60257;42.638;23.376;2024-03-02T03:23:18;94009.69;;;7.33;89.87
72308;BME280;60257;42.638;23.376;2024-03-02T03:25:18;94013.56;;;7.32;88.88
72308;BME280;60257;42.638;23.376;2024-03-02T03:27:18;94020.81;;;7.28;88.81
72308;BME280;60257;42.638;23.376;2024-03-02T03:29:19;94016.16;;;7.28;89.02
72308;BME280;60257;42.638;23.376;2024-03-02T03:31:20;94014.22;;;7.29;89.41
72308;BME280;60257;42.638;23.376;2024-03-02T03:33:20;94018.88;;;7.28;88.81
72308;BME280;60257;42.638;23.376;2024-03-02T03:35:20;94007.88;;;7.25;88.73
72308;BME280;60257;42.638;23.376;2024-03-02T03:37:21;94014.34;;;7.20;88.87
72308;BME280;60257;42.638;23.376;2024-03-02T03:39:21;94019.91;;;7.24;88.69
72308;BME280;60257;42.638;23.376;2024-03-02T03:41:21;94021.19;;;7.26;88.65
72308;BME280;60257;42.638;23.376;2024-03-02T03:43:22;94020.81;;;7.28;88.25
72308;BME280;60257;42.638;23.376;2024-03-02T03:45:22;94010.69;;;7.28;88.21
72308;BME280;60257;42.638;23.376;2024-03-02T03:47:22;94004.34;;;7.24;87.81
72308;BME280;60257;42.638;23.376;2024-03-02T03:49:23;94014.59;;;7.27;87.97
72308;BME280;60257;42.638;23.376;2024-03-02T03:51:23;94010.03;;;7.31;87.95
72308;BME280;60257;42.638;23.376;2024-03-02T03:53:23;94012.28;;;7.29;88.01
72308;BME280;60257;42.638;23.376;2024-03-02T03:55:24;94016.63;;;7.30;87.67
72308;BME280;60257;42.638;23.376;2024-03-02T03:57:25;94012.41;;;7.33;87.63
72308;BME280;60257;42.638;23.376;2024-03-02T03:59:26;94010.81;;;7.32;87.48
72308;BME280;60257;42.638;23.376;2024-03-02T04:01:26;94017.06;;;7.32;87.79
72308;BME280;60257;42.638;23.376;2024-03-02T04:03:27;94011.63;;;7.32;87.59
72308;BME280;60257;42.638;23.376;2024-03-02T04:05:27;94020.25;;;7.34;87.71
72308;BME280;60257;42.638;23.376;2024-03-02T04:07:27;94012.50;;;7.37;88.58
72308;BME280;60257;42.638;23.376;2024-03-02T04:09:28;94011.38;;;7.38;88.87
72308;BME280;60257;42.638;23.376;2024-03-02T04:11:28;94011.63;;;7.32;88.63
72308;BME280;60257;42.638;23.376;2024-03-02T04:13:28;94011.72;;;7.36;88.15
72308;BME280;60257;42.638;23.376;2024-03-02T04:15:29;94011.03;;;7.39;88.41
72308;BME280;60257;42.638;23.376;2024-03-02T04:17:31;94013.78;;;7.39;88.86
72308;BME280;60257;42.638;23.376;2024-03-02T04:19:32;94010.72;;;7.41;88.50
72308;BME280;60257;42.638;23.376;2024-03-02T04:21:32;94014.22;;;7.41;88.83
72308;BME280;60257;42.638;23.376;2024-03-02T04:23:33;94014.22;;;7.41;88.46
72308;BME280;60257;42.638;23.376;2024-03-02T04:25:33;94006.06;;;7.41;88.67
72308;BME280;60257;42.638;23.376;2024-03-02T04:27:34;94016.50;;;7.39;89.05
72308;BME280;60257;42.638;23.376;2024-03-02T04:29:34;94016.50;;;7.39;88.75
72308;BME280;60257;42.638;23.376;2024-03-02T04:31:34;94018.56;;;7.42;88.64
72308;BME280;60257;42.638;23.376;2024-03-02T04:33:35;94022.09;;;7.43;88.49
72308;BME280;60257;42.638;23.376;2024-03-02T04:35:38;94014.22;;;7.41;88.24
72308;BME280;60257;42.638;23.376;2024-03-02T04:37:39;94014.22;;;7.41;88.21
72308;BME280;60257;42.638;23.376;2024-03-02T04:39:39;94017.06;;;7.45;88.58
72308;BME280;60257;42.638;23.376;2024-03-02T04:41:39;94018.97;;;7.44;88.18
72308;BME280;60257;42.638;23.376;2024-03-02T04:43:40;94023.31;;;7.45;88.44
72308;BME280;60257;42.638;23.376;2024-03-02T04:45:40;94015.81;;;7.42;89.02
72308;BME280;60257;42.638;23.376;2024-03-02T04:47:40;94020.91;;;7.44;89.25
72308;BME280;60257;42.638;23.376;2024-03-02T04:49:41;94018.97;;;7.44;89.75
72308;BME280;60257;42.638;23.376;2024-03-02T04:51:41;94018.19;;;7.44;90.25
72308;BME280;60257;42.638;23.376;2024-03-02T04:53:42;94025.25;;;7.45;90.20
72308;BME280;60257;42.638;23.376;2024-03-02T04:55:42;94013.78;;;7.39;90.18
72308;BME280;60257;42.638;23.376;2024-03-02T04:57:43;94020.47;;;7.42;90.10
72308;BME280;60257;42.638;23.376;2024-03-02T04:59:43;94029.81;;;7.41;90.48
72308;BME280;60257;42.638;23.376;2024-03-02T05:01:44;94023.22;;;7.42;90.35
72308;BME280;60257;42.638;23.376;2024-03-02T05:03:45;94024.34;;;7.41;90.25
72308;BME280;60257;42.638;23.376;2024-03-02T05:05:45;94029.69;;;7.37;90.68
72308;BME280;60257;42.638;23.376;2024-03-02T05:07:45;94031.59;;;7.37;90.89
72308;BME280;60257;42.638;23.376;2024-03-02T05:09:46;94039.78;;;7.37;91.64
72308;BME280;60257;42.638;23.376;2024-03-02T05:11:48;94036.97;;;7.33;91.67
72308;BME280;60257;42.638;23.376;2024-03-02T05:14:07;94032.75;;;7.35;91.07
72308;BME280;60257;42.638;23.376;2024-03-02T05:16:08;94040.81;;;7.32;91.42
72308;BME280;60257;42.638;23.376;2024-03-02T05:18:08;94038.91;;;7.32;91.35
72308;BME280;60257;42.638;23.376;2024-03-02T05:20:09;94040.28;;;7.26;91.56
72308;BME280;60257;42.638;23.376;2024-03-02T05:22:09;94045.34;;;7.28;91.72
72308;BME280;60257;42.638;23.376;2024-03-02T05:24:10;94044.47;;;7.24;91.74
72308;BME280;60257;42.638;23.376;2024-03-02T05:26:10;94050.25;;;7.22;92.29
72308;BME280;60257;42.638;23.376;2024-03-02T05:28:14;94036.63;;;7.22;92.51
72308;BME280;60257;42.638;23.376;2024-03-02T05:30:14;94047.84;;;7.21;92.50
72308;BME280;60257;42.638;23.376;2024-03-02T05:32:15;94048.22;;;7.19;92.44
72308;BME280;60257;42.638;23.376;2024-03-02T05:34:15;94053.09;;;7.14;92.72
72308;BME280;60257;42.638;23.376;2024-03-02T05:36:15;94055.38;;;7.12;92.89
72308;BME280;60257;42.638;23.376;2024-03-02T05:38:16;94062.84;;;7.15;92.01
72308;BME280;60257;42.638;23.376;2024-03-02T05:40:16;94060.59;;;7.17;92.55
72308;BME280;60257;42.638;23.376;2024-03-02T05:42:16;94067.97;;;7.16;92.85
72308;BME280;60257;42.638;23.376;2024-03-02T05:44:17;94070.03;;;7.19;93.51
72308;BME280;60257;42.638;23.376;2024-03-02T05:46:18;94069.69;;;7.21;94.01
72308;BME280;60257;42.638;23.376;2024-03-02T05:48:18;94069.81;;;7.24;94.43
72308;BME280;60257;42.638;23.376;2024-03-02T05:50:19;94071.72;;;7.24;94.72
72308;BME280;60257;42.638;23.376;2024-03-02T05:52:20;94069.13;;;7.27;94.52
72308;BME280;60257;42.638;23.376;2024-03-02T05:54:21;94080.47;;;7.29;94.32
72308;BME280;60257;42.638;23.376;2024-03-02T05:56:21;94080.59;;;7.33;94.05
72308;BME280;60257;42.638;23.376;2024-03-02T05:58:22;94071.16;;;7.30;94.19
72308;BME280;60257;42.638;23.376;2024-03-02T06:00:34;94067.88;;;7.25;93.84
72308;BME280;60257;42.638;23.376;2024-03-02T06:02:34;94078.22;;;7.31;94.10
72308;BME280;60257;42.638;23.376;2024-03-02T06:04:35;94064.91;;;7.30;93.96
72308;BME280;60257;42.638;23.376;2024-03-02T06:06:35;94075.25;;;7.37;94.24
72308;BME280;60257;42.638;23.376;2024-03-02T06:08:36;94078.34;;;7.35;94.42
72308;BME280;60257;42.638;23.376;2024-03-02T06:10:36;94077.53;;;7.34;94.80
72308;BME280;60257;42.638;23.376;2024-03-02T06:12:36;94080.28;;;7.34;94.77
72308;BME280;60257;42.638;23.376;2024-03-02T06:14:37;94073.44;;;7.28;94.65
72308;BME280;60257;42.638;23.376;2024-03-02T06:16:37;94066.28;;;7.24;94.73
72308;BME280;60257;42.638;23.376;2024-03-02T06:18:37;94075.47;;;7.31;94.70
72308;BME280;60257;42.638;23.376;2024-03-02T06:20:38;94074.81;;;7.34;94.83
72308;BME280;60257;42.638;23.376;2024-03-02T06:22:38;94078.78;;;7.37;95.06
72308;BME280;60257;42.638;23.376;2024-03-02T06:24:38;94083.44;;;7.37;94.66
72308;BME280;60257;42.638;23.376;2024-03-02T06:26:39;94080.16;;;7.31;94.54
72308;BME280;60257;42.638;23.376;2024-03-02T06:28:39;94080.59;;;7.33;94.40
72308;BME280;60257;42.638;23.376;2024-03-02T06:30:40;94084.34;;;7.28;94.40
72308;BME280;60257;42.638;23.376;2024-03-02T06:32:40;94085.94;;;7.29;94.47
72308;BME280;60257;42.638;23.376;2024-03-02T06:34:40;94090.25;;;7.30;94.96
72308;BME280;60257;42.638;23.376;2024-03-02T06:36:40;94085.59;;;7.31;95.41
72308;BME280;60257;42.638;23.376;2024-03-02T06:38:42;94093.91;;;7.34;95.52
72308;BME280;60257;42.638;23.376;2024-03-02T06:40:43;94088.88;;;7.37;95.82
72308;BME280;60257;42.638;23.376;2024-03-02T06:42:43;94099.47;;;7.38;95.52
72308;BME280;60257;42.638;23.376;2024-03-02T06:44:43;94090.16;;;7.39;95.49
72308;BME280;60257;42.638;23.376;2024-03-02T06:47:02;94096.06;;;7.41;95.14
72308;BME280;60257;42.638;23.376;2024-03-02T06:49:03;94099.25;;;7.43;95.37
72308;BME280;60257;42.638;23.376;2024-03-02T06:51:04;94087.41;;;7.39;95.29
72308;BME280;60257;42.638;23.376;2024-03-02T06:53:04;94100.03;;;7.44;95.95
72308;BME280;60257;42.638;23.376;2024-03-02T06:55:05;94098.09;;;7.44;95.70
72308;BME280;60257;42.638;23.376;2024-03-02T06:57:05;94091.06;;;7.43;95.40
72308;BME280;60257;42.638;23.376;2024-03-02T06:59:06;94093.00;;;7.43;94.97
72308;BME280;60257;42.638;23.376;2024-03-02T07:01:07;94095.84;;;7.46;94.09
72308;BME280;60257;42.638;23.376;2024-03-02T07:03:08;94099.25;;;7.43;93.42
72308;BME280;60257;42.638;23.376;2024-03-02T07:05:08;94094.25;;;7.45;93.78
72308;BME280;60257;42.638;23.376;2024-03-02T07:07:08;94102.09;;;7.47;93.33
72308;BME280;60257;42.638;23.376;2024-03-02T07:09:09;94100.25;;;7.39;93.71
72308;BME280;60257;42.638;23.376;2024-03-02T07:11:11;94098.47;;;7.43;93.67
72308;BME280;60257;42.638;23.376;2024-03-02T07:13:11;94107.06;;;7.45;94.63
72308;BME280;60257;42.638;23.376;2024-03-02T07:15:12;94094.00;;;7.38;94.00
72308;BME280;60257;42.638;23.376;2024-03-02T07:17:29;94101.75;;;7.48;93.68
72308;BME280;60257;42.638;23.376;2024-03-02T07:19:30;94096.53;;;7.43;93.73
72308;BME280;60257;42.638;23.376;2024-03-02T07:21:31;94101.41;;;7.50;93.42
72308;BME280;60257;42.638;23.376;2024-03-02T07:23:32;94102.09;;;7.47;93.47
72308;BME280;60257;42.638;23.376;2024-03-02T07:25:33;94112.31;;;7.50;93.25
72308;BME280;60257;42.638;23.376;2024-03-02T07:27:33;94108.34;;;7.47;92.54
72308;BME280;60257;42.638;23.376;2024-03-02T07:29:36;94106.97;;;7.41;93.88
72308;BME280;60257;42.638;23.376;2024-03-02T07:31:36;94110.94;;;7.44;93.20
72308;BME280;60257;42.638;23.376;2024-03-02T07:33:36;94118.00;;;7.45;93.22
72308;BME280;60257;42.638;23.376;2024-03-02T07:35:37;94106.28;;;7.44;93.20
72308;BME280;60257;42.638;23.376;2024-03-02T07:37:37;94112.09;;;7.43;93.43
72308;BME280;60257;42.638;23.376;2024-03-02T07:39:38;94115.38;;;7.48;93.65
72308;BME280;60257;42.638;23.376;2024-03-02T07:41:38;94108.00;;;7.49;94.21
72308;BME280;60257;42.638;23.376;2024-03-02T07:43:39;94111.63;;;7.53;93.77
72308;BME280;60257;42.638;23.376;2024-03-02T07:45:40;94110.84;;;7.52;92.91
72308;BME280;60257;42.638;23.376;2024-03-02T07:47:41;94122.91;;;7.63;92.83
72308;BME280;60257;42.638;23.376;2024-03-02T07:49:41;94115.16;;;7.65;92.46
72308;BME280;60257;42.638;23.376;2024-03-02T07:51:42;94117.44;;;7.63;92.80
72308;BME280;60257;42.638;23.376;2024-03-02T07:53:43;94124.59;;;7.56;92.47
72308;BME280;60257;42.638;23.376;2024-03-02T07:55:43;94127.44;;;7.47;92.89
72308;BME280;60257;42.638;23.376;2024-03-02T07:57:44;94120.50;;;7.38;93.89
72308;BME280;60257;42.638;23.376;2024-03-02T07:59:44;94115.50;;;7.40;93.42
72308;BME280;60257;42.638;23.376;2024-03-02T08:01:44;94121.09;;;7.43;93.68
72308;BME280;60257;42.638;23.376;2024-03-02T08:03:45;94122.31;;;7.46;93.70
72308;BME280;60257;42.638;23.376;2024-03-02T08:05:50;94130.16;;;7.47;93.82
72308;BME280;60257;42.638;23.376;2024-03-02T08:07:51;94124.72;;;7.47;93.68
72308;BME280;60257;42.638;23.376;2024-03-02T08:09:52;94128.69;;;7.50;93.05
72308;BME280;60257;42.638;23.376;2024-03-02T08:11:53;94126.53;;;7.43;93.39
72308;BME280;60257;42.638;23.376;2024-03-02T08:13:53;94128.78;;;7.53;92.63
72308;BME280;60257;42.638;23.376;2024-03-02T08:15:55;94139.38;;;7.55;93.00
72308;BME280;60257;42.638;23.376;2024-03-02T08:17:55;94140.28;;;7.59;91.75
72308;BME280;60257;42.638;23.376;2024-03-02T08:19:56;94134.81;;;7.59;92.12
72308;BME280;60257;42.638;23.376;2024-03-02T08:21:57;94134.16;;;7.62;91.67
72308;BME280;60257;42.638;23.376;2024-03-02T08:23:59;94136.53;;;7.63;91.94
72308;BME280;60257;42.638;23.376;2024-03-02T08:26:00;94139.38;;;7.67;92.09
72308;BME280;60257;42.638;23.376;2024-03-02T08:28:00;94146.09;;;7.69;91.56
72308;BME280;60257;42.638;23.376;2024-03-02T08:30:00;94134.50;;;7.72;91.27
72308;BME280;60257;42.638;23.376;2024-03-02T08:32:01;94135.72;;;7.75;91.90
72308;BME280;60257;42.638;23.376;2024-03-02T08:34:01;94128.56;;;7.83;90.99
72308;BME280;60257;42.638;23.376;2024-03-02T08:36:02;94133.81;;;7.88;90.73
72308;BME280;60257;42.638;23.376;2024-03-02T08:38:03;94137.09;;;7.93;91.09
72308;BME280;60257;42.638;23.376;2024-03-02T08:40:06;94126.38;;;8.00;90.19
72308;BME280;60257;42.638;23.376;2024-03-02T08:42:07;94130.13;;;8.08;90.03
72308;BME280;60257;42.638;23.376;2024-03-02T08:44:08;94127.06;;;8.09;89.75
72308;BME280;60257;42.638;23.376;2024-03-02T08:46:08;94131.25;;;8.19;89.98
72308;BME280;60257;42.638;23.376;2024-03-02T08:48:09;94131.81;;;8.25;89.72
72308;BME280;60257;42.638;23.376;2024-03-02T08:50:09;94126.09;;;8.30;90.82
72308;BME280;60257;42.638;23.376;2024-03-02T08:52:09;94135.66;;;8.48;91.17
72308;BME280;60257;42.638;23.376;2024-03-02T08:54:10;94133.66;;;8.61;90.59
72308;BME280;60257;42.638;23.376;2024-03-02T08:56:10;94133.50;;;8.69;90.43
72308;BME280;60257;42.638;23.376;2024-03-02T08:58:12;94124.91;;;8.83;89.55
72308;BME280;60257;42.638;23.376;2024-03-02T09:00:13;94125.75;;;8.99;88.97
72308;BME280;60257;42.638;23.376;2024-03-02T09:02:13;94127.03;;;9.17;86.43
72308;BME280;60257;42.638;23.376;2024-03-02T09:04:13;94126.50;;;9.27;85.70
72308;BME280;60257;42.638;23.376;2024-03-02T09:06:14;94133.84;;;9.39;83.94
72308;BME280;60257;42.638;23.376;2024-03-02T09:08:16;94127.66;;;9.42;82.70
72308;BME280;60257;42.638;23.376;2024-03-02T09:10:17;94135.44;;;9.40;81.98
72308;BME280;60257;42.638;23.376;2024-03-02T09:12:17;94127.84;;;9.49;81.90
72308;BME280;60257;42.638;23.376;2024-03-02T09:14:18;94129.00;;;9.48;82.07
72308;BME280;60257;42.638;23.376;2024-03-02T09:16:19;94135.53;;;9.59;83.35
72308;BME280;60257;42.638;23.376;2024-03-02T09:18:19;94132.88;;;9.63;79.51
72308;BME280;60257;42.638;23.376;2024-03-02T09:20:20;94143.13;;;9.66;79.93
72308;BME280;60257;42.638;23.376;2024-03-02T09:22:20;94122.44;;;9.69;79.59
72308;BME280;60257;42.638;23.376;2024-03-02T09:24:21;94133.84;;;9.71;79.77
72308;BME280;60257;42.638;23.376;2024-03-02T09:26:22;94142.84;;;9.71;79.04
72308;BME280;60257;42.638;23.376;2024-03-02T09:28:22;94146.28;;;9.68;79.85
72308;BME280;60257;42.638;23.376;2024-03-02T09:30:23;94141.59;;;9.69;79.40
72308;BME280;60257;42.638;23.376;2024-03-02T09:32:23;94144.44;;;9.56;78.51
72308;BME280;60257;42.638;23.376;2024-03-02T09:34:24;94146.22;;;9.49;78.79
72308;BME280;60257;42.638;23.376;2024-03-02T09:36:24;94149.28;;;9.47;78.64
72308;BME280;60257;42.638;23.376;2024-03-02T09:38:24;94152.38;;;9.46;78.95
72308;BME280;60257;42.638;23.376;2024-03-02T09:40:25;94146.72;;;9.39;80.32
72308;BME280;60257;42.638;23.376;2024-03-02T09:42:25;94145.84;;;9.35;81.78
72308;BME280;60257;42.638;23.376;2024-03-02T09:44:26;94151.94;;;9.28;81.69
72308;BME280;60257;42.638;23.376;2024-03-02T09:46:26;94150.34;;;9.27;82.41
72308;BME280;60257;42.638;23.376;2024-03-02T09:48:27;94152.88;;;9.20;82.13
72308;BME280;60257;42.638;23.376;2024-03-02T09:50:27;94152.25;;;8.83;83.57
72308;BME280;60257;42.638;23.376;2024-03-02T09:52:28;94156.50;;;8.80;83.71
72308;BME280;60257;42.638;23.376;2024-03-02T09:54:28;94153.22;;;8.75;83.67
72308;BME280;60257;42.638;23.376;2024-03-02T09:56:29;94150.81;;;8.73;83.06
72308;BME280;60257;42.638;23.376;2024-03-02T09:58:29;94147.44;;;8.64;83.90
72308;BME280;60257;42.638;23.376;2024-03-02T10:00:29;94150.03;;;8.73;83.89
72308;BME280;60257;42.638;23.376;2024-03-02T10:02:30;94156.97;;;8.70;82.25
72308;BME280;60257;42.638;23.376;2024-03-02T10:04:30;94151.25;;;8.75;82.46
72308;BME280;60257;42.638;23.376;2024-03-02T10:06:33;94146.00;;;8.82;82.46
72308;BME280;60257;42.638;23.376;2024-03-02T10:08:43;94142.75;;;8.93;82.82
72308;BME280;60257;42.638;23.376;2024-03-02T10:10:48;94153.50;;;8.85;82.01
72308;BME280;60257;42.638;23.376;2024-03-02T10:13:03;94154.41;;;8.90;82.46
72308;BME280;60257;42.638;23.376;2024-03-02T10:15:05;94155.75;;;8.96;82.89
72308;BME280;60257;42.638;23.376;2024-03-02T10:17:08;94147.00;;;8.90;84.31
72308;BME280;60257;42.638;23.376;2024-03-02T10:19:18;94150.00;;;9.01;82.94
72308;BME280;60257;42.638;23.376;2024-03-02T10:21:19;94147.72;;;9.03;82.06
72308;BME280;60257;42.638;23.376;2024-03-02T10:23:19;94147.38;;;9.04;82.11
72308;BME280;60257;42.638;23.376;2024-03-02T10:25:31;94149.06;;;9.09;83.64
72308;BME280;60257;42.638;23.376;2024-03-02T10:27:34;94147.63;;;8.99;84.63
72308;BME280;60257;42.638;23.376;2024-03-02T10:29:38;94144.09;;;8.99;85.79
72308;BME280;60257;42.638;23.376;2024-03-02T10:31:41;94143.66;;;8.97;86.43
72308;BME280;60257;42.638;23.376;2024-03-02T10:33:42;94151.81;;;8.81;86.56
72308;BME280;60257;42.638;23.376;2024-03-02T10:35:43;94145.75;;;8.87;86.45
72308;BME280;60257;42.638;23.376;2024-03-02T10:37:44;94149.50;;;8.83;86.99
72308;BME280;60257;42.638;23.376;2024-03-02T10:39:46;94143.16;;;8.79;86.66
72308;BME280;60257;42.638;23.376;2024-03-02T10:41:49;94143.50;;;8.77;87.87